Time;durP1;ratioP1;P1;durP2;ratioP2;P2;SDS_P1;SDS_P2;PMS_P1;PMS_P2;Temp;Humidity;BMP_temperature;BMP_pressure;BME280_temperature;BME280_humidity;BME280_pressure;Samples;Min_cycle;Max_cycle;Signal;HPM_P1;HPM_P2
2021/10/25 00:02:24;;;;;;;12.30;6.10;;;;;;;-0.05;74.03;99254.97;1744332;80;21019;-77
2021/10/25 00:04:50;;;;;;;13.43;7.00;;;;;;;-0.03;75.27;99251.58;1744921;82;20982;-77
2021/10/25 00:07:17;;;;;;;10.08;6.08;;;;;;;-0.06;75.36;99258.02;1744105;81;21106;-78
2021/10/25 00:09:43;;;;;;;10.53;5.85;;;;;;;-0.07;75.00;99260.56;1765401;79;21217;-78
2021/10/25 00:12:10;;;;;;;12.78;6.42;;;;;;;-0.06;74.51;99255.81;1774744;81;21003;-78
2021/10/25 00:14:37;;;;;;;11.65;6.33;;;;;;;-0.08;74.32;99252.28;1772148;81;21050;-79
2021/10/25 00:17:04;;;;;;;12.60;6.35;;;;;;;-0.09;74.54;99253.13;1772523;81;21424;-79
2021/10/25 00:19:31;;;;;;;12.82;6.22;;;;;;;-0.08;74.88;99252.28;1772463;81;21003;-79
2021/10/25 00:21:57;;;;;;;9.08;6.05;;;;;;;-0.11;75.53;99252.17;1771847;79;20984;-78
2021/10/25 00:24:24;;;;;;;11.83;6.40;;;;;;;-0.15;77.14;99249.48;1771571;81;21094;-78
2021/10/25 00:26:51;;;;;;;8.88;5.53;;;;;;;-0.23;78.10;99249.62;1771355;81;21150;-79
2021/10/25 00:29:18;;;;;;;12.55;6.67;;;;;;;-0.23;76.51;99248.32;1771539;81;21039;-79
2021/10/25 00:31:44;;;;;;;11.48;7.12;;;;;;;-0.20;76.02;99249.70;1767572;80;20980;-79
2021/10/25 00:34:13;;;;;;;12.85;6.53;;;;;;;-0.20;75.36;99243.20;1767024;81;20992;-79
2021/10/25 00:36:41;;;;;;;13.85;6.50;;;;;;;-0.19;76.01;99238.87;1766850;80;20979;-79
2021/10/25 00:39:09;;;;;;;11.12;5.85;;;;;;;-0.14;75.62;99245.13;1778555;80;21021;-78
2021/10/25 00:41:36;;;;;;;14.35;7.00;;;;;;;-0.10;75.51;99248.72;1796271;80;21017;-79
2021/10/25 00:44:03;;;;;;;12.18;6.22;;;;;;;-0.09;75.24;99243.56;1796377;79;21032;-79
2021/10/25 00:46:30;;;;;;;13.75;6.25;;;;;;;-0.09;74.62;99238.35;1758542;80;20995;-79
2021/10/25 00:48:56;;;;;;;17.67;6.58;;;;;;;-0.13;74.68;99232.56;1760609;81;20975;-79
2021/10/25 00:51:23;;;;;;;11.28;6.40;;;;;;;-0.18;74.53;99230.22;1766970;81;21034;-80
2021/10/25 00:53:50;;;;;;;12.10;7.15;;;;;;;-0.21;74.57;99226.23;1767247;81;21305;-80
2021/10/25 00:56:18;;;;;;;16.07;7.45;;;;;;;-0.24;74.79;99229.63;1767243;81;21043;-80
2021/10/25 00:58:45;;;;;;;12.00;6.47;;;;;;;-0.23;75.41;99228.78;1767205;81;21031;-80
2021/10/25 01:01:12;;;;;;;11.97;7.22;;;;;;;-0.21;75.05;99237.95;1767222;81;21047;-80
2021/10/25 01:03:39;;;;;;;15.10;7.75;;;;;;;-0.29;75.03;99237.70;1788693;80;21044;-78
2021/10/25 01:06:07;;;;;;;13.60;6.97;;;;;;;-0.27;75.34;99234.72;1770304;80;21051;-78
2021/10/25 01:08:37;;;;;;;13.00;7.05;;;;;;;-0.28;74.88;99241.63;1749531;81;21055;-78
2021/10/25 01:11:04;;;;;;;14.58;6.97;;;;;;;-0.32;74.87;99237.18;1739527;80;21047;-78
2021/10/25 01:13:31;;;;;;;14.18;7.62;;;;;;;-0.32;74.74;99231.97;1754997;80;21015;-78
2021/10/25 01:15:58;;;;;;;13.08;6.92;;;;;;;-0.36;74.81;99237.00;1736985;83;20987;-78
2021/10/25 01:18:24;;;;;;;16.10;7.20;;;;;;;-0.38;74.98;99233.47;1736743;83;20964;-78
2021/10/25 01:20:52;;;;;;;13.55;6.62;;;;;;;-0.38;75.19;99229.13;1761024;80;21070;-78
2021/10/25 01:23:20;;;;;;;14.13;7.20;;;;;;;-0.42;74.83;99229.84;1796934;78;21028;-78
2021/10/25 01:25:47;;;;;;;12.73;6.60;;;;;;;-0.46;74.81;99228.87;1796156;80;21016;-78
2021/10/25 01:28:14;;;;;;;10.00;6.28;;;;;;;-0.49;75.06;99221.38;1796332;79;21004;-78
2021/10/25 01:30:41;;;;;;;13.38;7.17;;;;;;;-0.58;75.17;99218.91;1799737;79;20985;-78
2021/10/25 01:33:15;;;;;;;10.72;5.92;;;;;;;-0.57;74.95;99211.59;1783886;79;20948;-78
2021/10/25 01:35:43;;;;;;;11.12;6.17;;;;;;;-0.62;74.95;99214.85;1771110;81;20995;-78
2021/10/25 01:38:10;;;;;;;14.50;7.50;;;;;;;-0.70;75.05;99215.89;1756225;79;20959;-78
2021/10/25 01:40:37;;;;;;;13.25;6.62;;;;;;;-0.76;75.05;99217.84;1743701;81;21174;-78
2021/10/25 01:43:05;;;;;;;13.38;6.75;;;;;;;-0.77;75.78;99221.28;1741264;82;21076;-79
2021/10/25 01:45:32;;;;;;;14.07;6.78;;;;;;;-0.77;75.81;99217.38;1741201;82;21034;-79
2021/10/25 01:47:59;;;;;;;12.82;6.72;;;;;;;-0.79;75.59;99219.02;1741182;82;21050;-79
2021/10/25 01:50:27;;;;;;;11.95;6.05;;;;;;;-0.82;75.54;99226.31;1741259;82;21065;-78
2021/10/25 01:52:55;;;;;;;17.30;7.08;;;;;;;-0.86;76.26;99217.05;1741189;82;21019;-78
2021/10/25 01:55:22;;;;;;;12.47;6.95;;;;;;;-0.93;76.43;99212.03;1732298;81;21026;-78
2021/10/25 01:57:49;;;;;;;13.62;6.83;;;;;;;-0.94;76.67;99216.37;1747398;81;21047;-78
2021/10/25 02:00:16;;;;;;;11.73;6.80;;;;;;;-0.90;76.13;99214.75;1741343;82;21073;-78
2021/10/25 02:02:44;;;;;;;16.27;6.97;;;;;;;-0.94;75.87;99209.86;1780933;79;20992;-78
2021/10/25 02:05:30;;;;;;;12.90;6.25;;;;;;;-0.96;75.90;99213.20;1787005;79;21468;-77
2021/10/25 02:07:57;;;;;;;14.58;6.28;;;;;;;-0.99;76.28;99213.98;1778698;79;21022;-77
2021/10/25 02:10:24;;;;;;;11.25;6.40;;;;;;;-1.03;76.00;99212.12;1772049;79;20979;-77
2021/10/25 02:12:51;;;;;;;13.62;5.87;;;;;;;-1.07;76.28;99202.00;1771882;79;21456;-77
2021/10/25 02:15:17;;;;;;;12.00;6.00;;;;;;;-1.10;76.27;99214.02;1771647;81;21034;-77
2021/10/25 02:17:45;;;;;;;13.90;6.90;;;;;;;-1.12;76.40;99215.69;1771907;81;21006;-77
2021/10/25 02:20:11;;;;;;;13.35;6.50;;;;;;;-1.13;76.39;99214.79;1765126;79;20995;-77
2021/10/25 02:22:39;;;;;;;12.10;6.05;;;;;;;-1.18;76.56;99216.33;1749653;81;20971;-77
2021/10/25 02:25:06;;;;;;;10.93;6.72;;;;;;;-1.21;76.71;99216.20;1712145;82;21070;-77
2021/10/25 02:27:33;;;;;;;10.63;5.78;;;;;;;-1.16;76.52;99213.80;1741157;82;20967;-77
2021/10/25 02:30:02;;;;;;;11.20;6.75;;;;;;;-1.21;76.55;99217.11;1741333;82;21074;-77
2021/10/25 02:32:28;;;;;;;12.03;6.30;;;;;;;-1.21;76.45;99217.11;1772772;79;20969;-77
2021/10/25 02:34:55;;;;;;;12.07;6.35;;;;;;;-1.22;76.65;99219.64;1797526;79;20972;-77
2021/10/25 02:37:22;;;;;;;13.18;6.65;;;;;;;-1.22;76.69;99211.84;1771777;81;21030;-77
2021/10/25 02:39:49;;;;;;;9.80;6.03;;;;;;;-1.22;76.53;99207.53;1741615;81;21055;-77
2021/10/25 02:42:16;;;;;;;12.18;6.35;;;;;;;-1.27;76.41;99210.38;1771652;81;21035;-77
2021/10/25 02:44:44;;;;;;;13.95;6.05;;;;;;;-1.27;76.59;99213.38;1764646;81;21437;-77
2021/10/25 02:47:13;;;;;;;11.78;6.30;;;;;;;-1.24;76.61;99213.08;1754821;81;21046;-76
2021/10/25 02:49:40;;;;;;;11.12;5.90;;;;;;;-1.29;76.58;99212.02;1741446;82;21421;-76
2021/10/25 02:52:07;;;;;;;10.63;5.40;;;;;;;-1.30;76.64;99217.19;1741454;82;21035;-76
2021/10/25 02:54:34;;;;;;;12.18;5.83;;;;;;;-1.32;76.59;99208.02;1741229;82;21014;-76
2021/10/25 02:57:01;;;;;;;10.45;5.70;;;;;;;-1.33;76.84;99208.86;1741227;82;21026;-77
2021/10/25 02:59:28;;;;;;;12.30;5.95;;;;;;;-1.33;76.61;99207.56;1741325;82;21031;-76
2021/10/25 03:01:56;;;;;;;10.98;5.80;;;;;;;-1.33;76.88;99211.03;1765142;79;20949;-76
2021/10/25 03:04:22;;;;;;;12.45;5.75;;;;;;;-1.36;76.83;99214.80;1801551;79;21009;-76
2021/10/25 03:06:49;;;;;;;10.72;6.33;;;;;;;-1.35;76.84;99205.30;1771570;81;20995;-76
2021/10/25 03:09:16;;;;;;;11.88;5.67;;;;;;;-1.38;76.81;99211.27;1759806;79;21534;-76
2021/10/25 03:11:43;;;;;;;9.48;5.50;;;;;;;-1.39;76.82;99220.30;1754931;81;20998;-77
2021/10/25 03:14:10;;;;;;;10.40;5.42;;;;;;;-1.41;76.71;99221.97;1741385;82;21011;-77
2021/10/25 03:16:38;;;;;;;12.50;5.83;;;;;;;-1.45;77.20;99224.88;1738327;82;21115;-76
2021/10/25 03:19:05;;;;;;;10.38;5.53;;;;;;;-1.49;77.34;99225.58;1782509;79;20985;-76
2021/10/25 03:21:33;;;;;;;17.17;6.75;;;;;;;-1.49;77.17;99225.58;1800000;78;21039;-76
2021/10/25 03:24:00;;;;;;;10.53;6.78;;;;;;;-1.50;77.10;99226.41;1771663;81;21041;-77
2021/10/25 03:26:27;;;;;;;12.58;6.03;;;;;;;-1.49;77.11;99229.05;1771727;81;21151;-76
2021/10/25 03:28:54;;;;;;;11.48;6.20;;;;;;;-1.45;77.27;99227.48;1771736;81;21011;-77
2021/10/25 03:31:22;;;;;;;10.43;6.28;;;;;;;-1.46;77.16;99230.48;1773494;80;21536;-77
2021/10/25 03:33:50;;;;;;;8.98;5.25;;;;;;;-1.44;77.00;99224.05;1762220;79;20995;-77
2021/10/25 03:36:26;;;;;;;11.15;6.08;;;;;;;-1.47;77.61;99221.31;1727600;80;21065;-77
2021/10/25 03:38:50;;;;;;;9.73;5.95;;;;;;;-1.48;77.15;99221.75;1749913;81;21010;-77
2021/10/25 03:41:22;;;;;;;11.60;6.25;;;;;;;-1.42;77.14;99231.47;1736762;83;20943;-77
2021/10/25 03:43:52;;;;;;;9.60;5.75;;;;;;;-1.43;77.40;99224.51;1736462;83;21524;-77
2021/10/25 03:46:25;;;;;;;9.58;5.72;;;;;;;-1.40;78.17;99226.34;1736163;82;21000;-77
2021/10/25 03:49:52;;;;;;;11.83;5.80;;;;;;;-1.39;77.60;99220.30;1736190;83;21054;-77
2021/10/25 03:51:26;;;;;;;10.23;5.92;;;;;;;-1.41;77.78;99220.67;1725453;83;21003;-77
2021/10/25 03:54:16;;;;;;;12.55;6.17;;;;;;;-1.38;77.57;99228.57;1736802;83;21441;-77
2021/10/25 04:01:54;;;;;;;12.98;7.33;;;;;;;-1.42;77.46;99218.91;1764814;80;20980;-77
2021/10/25 04:28:47;;;;;;;9.68;5.58;;;;;;;-1.70;77.77;99220.42;1766134;81;21471;-76
2021/10/25 04:31:13;;;;;;;11.68;5.58;;;;;;;-1.73;78.70;99223.79;1773866;79;21028;-76
2021/10/25 04:33:45;;;;;;;15.48;6.47;;;;;;;-1.79;77.88;99220.52;1800199;78;20979;-76
2021/10/25 04:36:25;;;;;;;11.65;6.33;;;;;;;-1.80;77.80;99224.35;1719167;81;20983;-76
2021/10/25 04:38:53;;;;;;;11.00;6.83;;;;;;;-1.86;78.29;99227.61;1770949;80;21067;-76
2021/10/25 04:41:19;;;;;;;13.20;6.70;;;;;;;-1.88;78.36;99219.75;1771870;81;20995;-76
2021/10/25 04:43:46;;;;;;;18.30;6.97;;;;;;;-1.91;78.42;99228.70;1771725;81;21416;-76
2021/10/25 04:46:13;;;;;;;15.90;8.03;;;;;;;-1.91;78.32;99225.25;1771948;81;21073;-76
2021/10/25 04:48:41;;;;;;;19.75;7.97;;;;;;;-1.90;78.33;99224.41;1771758;81;21007;-76
2021/10/25 04:51:09;;;;;;;16.67;8.00;;;;;;;-1.90;78.60;99221.41;1762553;79;21396;-76
2021/10/25 04:53:44;;;;;;;;;;;;;;;-1.87;78.56;99226.71;1744924;79;20996;-76
2021/10/25 04:56:12;;;;;;;13.68;7.05;;;;;;;-1.82;78.57;99223.42;1741314;82;20130;-76
2021/10/25 04:58:38;;;;;;;14.90;8.70;;;;;;;-1.88;78.25;99218.45;1741554;82;21389;-75
2021/10/25 05:01:06;;;;;;;15.20;7.72;;;;;;;-1.87;78.06;99215.45;1756721;79;21032;-76
2021/10/25 05:03:35;;;;;;;18.12;8.05;;;;;;;-1.88;78.22;99220.15;1801836;79;21433;-76
2021/10/25 05:06:01;;;;;;;14.80;7.33;;;;;;;-1.86;78.38;99218.52;1759883;79;20991;-76
2021/10/25 05:08:28;;;;;;;13.50;7.67;;;;;;;-1.88;78.26;99214.95;1741459;82;21010;-77
2021/10/25 05:10:56;;;;;;;13.58;7.60;;;;;;;-1.86;78.20;99210.72;1741382;82;20959;-77
2021/10/25 05:13:22;;;;;;;13.20;7.05;;;;;;;-1.82;78.41;99228.62;1741363;82;21047;-76
2021/10/25 05:15:49;;;;;;;14.70;7.80;;;;;;;-1.82;78.29;99226.92;1741504;82;21420;-76
2021/10/25 05:18:16;;;;;;;28.42;15.40;;;;;;;-1.81;78.06;99227.78;1773738;79;20984;-76
2021/10/25 05:20:42;;;;;;;16.52;9.33;;;;;;;-1.78;78.31;99232.69;1806393;79;21015;-76
2021/10/25 05:23:09;;;;;;;19.55;8.98;;;;;;;-1.77;78.25;99232.28;1806649;79;20993;-76
2021/10/25 05:25:36;;;;;;;19.27;9.80;;;;;;;-1.79;79.88;99235.25;1831031;78;21017;-76
2021/10/25 05:28:04;;;;;;;15.75;8.55;;;;;;;-1.82;79.75;99234.72;1806410;79;21053;-76
2021/10/25 05:30:32;;;;;;;18.75;9.45;;;;;;;-1.83;78.79;99237.24;1770879;79;21453;-76
2021/10/25 05:32:58;;;;;;;20.23;9.18;;;;;;;-1.81;78.64;99240.78;1774340;78;21038;-76
2021/10/25 05:35:26;;;;;;;20.68;9.33;;;;;;;-1.79;78.94;99233.52;1761255;81;20998;-76
2021/10/25 05:37:53;;;;;;;22.00;9.93;;;;;;;-1.76;78.79;99236.66;1742917;82;21102;-76
2021/10/25 05:40:20;;;;;;;19.23;10.25;;;;;;;-1.73;78.50;99240.25;1744225;82;21011;-76
2021/10/25 05:42:49;;;;;;;18.95;10.82;;;;;;;-1.74;79.44;99236.31;1763255;81;20987;-76
2021/10/25 05:45:15;;;;;;;16.12;9.83;;;;;;;-1.70;78.96;99243.41;1774779;81;21093;-77
2021/10/25 05:47:42;;;;;;;15.45;9.63;;;;;;;-1.66;79.44;99245.72;1774891;81;21057;-76
2021/10/25 05:50:09;;;;;;;26.77;9.68;;;;;;;-1.67;79.09;99235.72;1774482;81;21106;-76
2021/10/25 05:52:37;;;;;;;17.32;9.20;;;;;;;-1.62;79.05;99245.02;1773181;81;21441;-75
2021/10/25 05:55:05;;;;;;;15.55;8.68;;;;;;;-1.61;78.55;99239.85;1773269;81;20994;-75
2021/10/25 05:57:32;;;;;;;13.13;8.28;;;;;;;-1.58;78.63;99238.22;1773184;81;20992;-76
2021/10/25 06:00:02;;;;;;;14.25;8.90;;;;;;;-1.60;79.53;99244.25;1765248;79;21053;-76
2021/10/25 06:02:35;;;;;;;17.23;9.73;;;;;;;-1.60;79.08;99246.85;1777009;79;20933;-76
2021/10/25 06:05:06;;;;;;;17.10;8.87;;;;;;;-1.57;78.81;99251.28;1790300;79;20981;-76
2021/10/25 06:07:34;;;;;;;15.53;8.43;;;;;;;-1.54;79.06;99244.02;1803530;79;21001;-76
2021/10/25 06:10:01;;;;;;;16.93;7.92;;;;;;;-1.53;79.10;99247.95;1804282;79;20977;-76
2021/10/25 06:12:37;;;;;;;15.80;9.08;;;;;;;-1.47;80.43;99248.22;1805136;78;21016;-76
2021/10/25 06:15:09;;;;;;;17.30;8.03;;;;;;;-1.39;79.75;99247.61;1801883;79;21006;-76
2021/10/25 06:20:10;;;;;;;17.50;8.45;;;;;;;-1.36;78.93;99245.14;1774673;81;21011;-75
2021/10/25 06:22:38;;;;;;;18.05;9.10;;;;;;;-1.34;78.76;99244.77;1774596;81;20980;-76
2021/10/25 06:25:10;;;;;;;16.35;8.88;;;;;;;-1.34;78.69;99240.47;1764508;79;21381;-77
2021/10/25 06:27:36;;;;;;;17.35;8.83;;;;;;;-1.29;78.57;99245.83;1774898;81;21496;-77
2021/10/25 06:30:07;;;;;;;15.08;8.70;;;;;;;-1.23;78.53;99242.19;1774902;81;21026;-77
2021/10/25 06:32:34;;;;;;;16.93;8.68;;;;;;;-1.14;78.71;99242.04;1803787;79;21434;-76
2021/10/25 06:35:06;;;;;;;12.93;8.40;;;;;;;-1.05;78.22;99238.48;1773825;78;20995;-77
2021/10/25 06:37:55;;;;;;;15.13;8.70;;;;;;;-0.98;78.36;99239.20;1720243;81;20975;-77
2021/10/25 06:40:23;;;;;;;13.30;8.60;;;;;;;-0.90;78.01;99229.07;1771189;81;21046;-77
2021/10/25 06:42:55;;;;;;;18.42;8.90;;;;;;;-0.84;77.90;99237.09;1771846;81;20995;-77
2021/10/25 06:45:24;;;;;;;16.70;9.33;;;;;;;-0.77;77.91;99233.41;1771819;81;20975;-77
2021/10/25 06:47:56;;;;;;;15.95;8.88;;;;;;;-0.70;77.59;99234.98;1771759;81;21113;-77
2021/10/25 06:50:26;;;;;;;16.35;8.33;;;;;;;-0.64;77.59;99228.21;1749870;79;21047;-77
2021/10/25 06:53:04;;;;;;;21.97;8.93;;;;;;;-0.59;77.38;99240.58;1771864;81;20986;-77
2021/10/25 06:55:34;;;;;;;18.15;9.88;;;;;;;-0.47;77.59;99237.52;1751550;82;21030;-77
2021/10/25 06:58:05;;;;;;;18.55;9.15;;;;;;;-0.38;77.14;99237.38;1771154;80;21015;-77
2021/10/25 07:00:32;;;;;;;15.60;8.95;;;;;;;-0.32;77.12;99237.18;1773185;79;21449;-77
2021/10/25 07:02:59;;;;;;;16.20;8.80;;;;;;;-0.22;76.82;99235.75;1759213;81;20991;-77
2021/10/25 07:05:31;;;;;;;15.30;7.55;;;;;;;-0.17;76.83;99229.41;1769116;81;21417;-77
2021/10/25 07:07:57;;;;;;;13.25;7.90;;;;;;;-0.06;76.88;99228.45;1769941;81;21015;-78
2021/10/25 07:10:24;;;;;;;16.00;8.28;;;;;;;0.04;76.77;99234.42;1770031;81;20972;-78
2021/10/25 07:12:53;;;;;;;12.10;7.15;;;;;;;0.12;76.53;99231.66;1770101;81;20960;-78
2021/10/25 07:15:20;;;;;;;11.40;6.95;;;;;;;0.21;76.41;99233.67;1770179;81;21378;-78
2021/10/25 07:17:53;;;;;;;14.60;7.35;;;;;;;0.32;76.22;99231.42;1786296;79;21445;-76
2021/10/25 07:20:29;;;;;;;15.30;7.08;;;;;;;0.41;76.09;99222.98;1779113;77;21378;-77
2021/10/25 07:23:30;;;;;;;15.45;8.55;;;;;;;0.55;76.08;99222.53;1766201;81;21004;-77
2021/10/25 08:07:05;;;;;;;30.20;15.68;;;;;;;2.47;72.38;99215.41;1771781;81;21030;-82
2021/10/25 08:12:10;;;;;;;31.90;14.65;;;;;;;2.63;71.79;99204.86;1771959;79;21066;-83
2021/10/25 08:14:47;;;;;;;27.85;15.38;;;;;;;2.73;71.91;99208.55;1754314;80;20953;-84
2021/10/25 08:17:17;;;;;;;31.40;15.60;;;;;;;2.83;72.18;99200.48;1704782;82;21017;-80
2021/10/25 08:19:39;;;;;;;32.83;15.63;;;;;;;2.89;71.67;99202.81;1714937;81;21470;-80
2021/10/25 08:22:14;;;;;;;29.18;14.23;;;;;;;2.95;71.58;99199.41;1723652;82;21020;-81
2021/10/25 08:24:44;;;;;;;28.98;15.23;;;;;;;3.02;71.29;99198.70;1721073;82;21417;-78
2021/10/25 08:27:24;;;;;;;28.55;14.33;;;;;;;3.09;71.15;99192.27;1721380;82;21083;-81
2021/10/25 08:29:50;;;;;;;41.18;15.60;;;;;;;3.17;71.19;99189.39;1723507;80;21043;-82
2021/10/25 08:32:30;;;;;;;28.45;15.45;;;;;;;3.25;70.98;99187.81;1741983;80;21017;-83
2021/10/25 08:34:57;;;;;;;42.80;15.55;;;;;;;3.30;70.96;99187.47;1769064;81;21047;-83
2021/10/25 08:40:22;;;;;;;30.65;14.30;;;;;;;3.45;70.53;99184.69;1718870;83;20988;-82
2021/10/25 08:42:49;;;;;;;27.32;14.70;;;;;;;3.53;68.63;99188.30;1776276;80;21415;-83
2021/10/25 08:45:28;;;;;;;28.02;13.80;;;;;;;3.61;69.56;99192.37;1750841;80;21023;-83
2021/10/25 08:47:50;;;;;;;33.33;17.23;;;;;;;3.69;69.91;99189.88;1738981;82;21159;-82
2021/10/25 08:50:22;;;;;;;37.03;20.52;;;;;;;3.80;70.00;99197.95;1744257;82;21004;-82
2021/10/25 08:52:51;;;;;;;24.60;14.75;;;;;;;3.86;69.88;99191.48;1744525;82;21125;-84
2021/10/25 08:55:19;;;;;;;27.98;13.72;;;;;;;3.92;69.39;99198.59;1771604;80;21039;-83
2021/10/25 08:57:48;;;;;;;27.58;14.85;;;;;;;3.96;69.09;99194.72;1744777;82;20997;-85
2021/10/25 09:00:22;;;;;;;26.25;14.28;;;;;;;4.06;68.58;99185.27;1749761;81;20959;-83
2021/10/25 09:03:09;;;;;;;30.02;15.55;;;;;;;4.17;68.98;99185.45;1742654;82;21005;-80
2021/10/25 09:05:40;;;;;;;30.25;14.75;;;;;;;4.27;68.78;99184.28;1743260;82;21013;-79
2021/10/25 09:08:11;;;;;;;24.30;14.15;;;;;;;4.38;68.92;99184.42;1743322;82;21008;-82
2021/10/25 09:10:46;;;;;;;25.37;14.38;;;;;;;4.48;67.58;99188.52;1734804;81;21008;-82
2021/10/25 09:13:17;;;;;;;25.60;14.75;;;;;;;4.58;68.65;99181.67;1752146;81;20996;-83
2021/10/25 09:15:50;;;;;;;30.45;15.05;;;;;;;4.68;68.29;99186.60;1769105;81;20974;-83
2021/10/25 09:18:29;;;;;;;23.12;14.98;;;;;;;4.76;68.14;99182.77;1675735;83;21033;-82
2021/10/25 09:21:05;;;;;;;32.45;15.32;;;;;;;4.84;67.51;99181.55;1696955;84;21092;-80
2021/10/25 09:23:45;;;;;;;24.67;15.15;;;;;;;4.94;67.30;99184.73;1699348;84;21048;-81
2021/10/25 09:26:18;;;;;;;25.12;14.55;;;;;;;5.07;67.37;99183.14;1699358;84;21044;-81
2021/10/25 09:28:53;;;;;;;30.05;16.97;;;;;;;5.20;66.57;99184.61;1699447;82;20990;-79
2021/10/25 09:31:32;;;;;;;25.72;15.68;;;;;;;5.33;67.20;99172.06;1698558;84;20997;-79
2021/10/25 09:34:13;;;;;;;30.08;15.32;;;;;;;5.46;66.72;99178.33;1757884;80;20980;-77
2021/10/25 09:37:09;;;;;;;27.58;15.35;;;;;;;5.64;65.66;99170.15;1753450;81;20991;-77
2021/10/25 09:39:54;;;;;;;28.07;15.25;;;;;;;5.82;66.87;99168.14;1771578;80;21027;-76
2021/10/25 09:45:35;;;;;;;27.93;14.38;;;;;;;6.06;66.27;99165.27;1771508;81;21030;-77
2021/10/25 09:50:54;;;;;;;31.00;15.85;;;;;;;6.30;65.23;99163.69;1773840;79;21510;-76
2021/10/25 09:53:43;;;;;;;22.15;12.98;;;;;;;6.45;65.50;99165.56;1766910;79;21022;-76
2021/10/25 09:56:10;;;;;;;23.20;12.35;;;;;;;6.54;64.48;99160.77;1773796;80;21017;-76
2021/10/25 09:58:56;;;;;;;21.42;12.65;;;;;;;6.69;65.37;99158.67;1773550;80;21027;-76
2021/10/25 10:01:23;;;;;;;22.80;12.75;;;;;;;6.79;64.48;99149.93;1763820;81;20995;-76
2021/10/25 10:03:47;;;;;;;21.60;12.35;;;;;;;6.95;64.62;99151.30;1741683;81;21516;-76
2021/10/25 10:06:15;;;;;;;17.07;11.48;;;;;;;7.07;62.95;99147.41;1764435;80;20933;-76
2021/10/25 10:08:44;;;;;;;25.72;12.70;;;;;;;7.19;63.42;99145.22;1769290;80;21022;-76
2021/10/25 10:11:13;;;;;;;21.77;12.47;;;;;;;7.34;63.21;99147.03;1776567;79;21512;-76
2021/10/25 10:13:42;;;;;;;18.73;10.80;;;;;;;7.50;63.79;99140.03;1747398;79;20975;-77
2021/10/25 10:16:20;;;;;;;20.30;11.08;;;;;;;7.63;63.58;99142.23;1750296;79;21070;-78
2021/10/25 10:18:58;;;;;;;20.23;11.43;;;;;;;7.81;63.33;99131.69;1775460;79;21371;-78
2021/10/25 10:21:27;;;;;;;22.00;10.75;;;;;;;7.95;63.09;99129.93;1780375;79;21404;-77
2021/10/25 10:24:05;;;;;;;22.62;11.57;;;;;;;8.12;61.75;99123.74;1771426;81;21035;-77
2021/10/25 10:26:36;;;;;;;19.02;9.68;;;;;;;8.28;60.90;99120.22;1770427;80;20988;-77
2021/10/25 10:29:14;;;;;;;17.42;10.15;;;;;;;8.61;61.48;99113.55;1763594;79;20979;-77
2021/10/25 10:32:01;;;;;;;16.82;9.00;;;;;;;9.70;61.29;99105.42;1731960;81;20992;-76
2021/10/25 10:34:41;;;;;;;16.48;9.15;;;;;;;11.18;54.59;99097.21;1797978;79;20970;-76
2021/10/25 10:37:27;;;;;;;14.68;8.80;;;;;;;12.56;52.04;99094.03;1805026;79;21485;-76
2021/10/25 10:40:06;;;;;;;15.93;9.88;;;;;;;13.70;46.54;99080.44;1779605;79;21060;-77
2021/10/25 10:42:37;;;;;;;15.85;9.33;;;;;;;14.75;46.07;99072.33;1803156;79;21108;-77
2021/10/25 10:45:11;;;;;;;16.30;10.10;;;;;;;15.92;44.44;99064.23;1805597;79;21020;-77
2021/10/25 10:47:50;;;;;;;14.23;8.90;;;;;;;17.01;45.52;99054.08;1805728;79;21431;-77
2021/10/25 10:50:35;;;;;;;16.12;9.05;;;;;;;17.67;36.00;99044.34;1807564;78;21048;-77
2021/10/25 10:53:09;;;;;;;15.48;8.80;;;;;;;18.37;39.59;99050.77;1796613;78;21349;-77
2021/10/25 10:55:42;;;;;;;16.40;9.40;;;;;;;19.12;35.88;99040.66;1760776;81;21500;-79
2021/10/25 10:58:25;;;;;;;12.93;7.75;;;;;;;19.94;37.95;99036.21;1774593;81;21007;-79
2021/10/25 11:00:49;;;;;;;14.63;9.18;;;;;;;20.21;32.40;99027.70;1778459;79;20948;-80
2021/10/25 11:03:22;;;;;;;12.53;9.18;;;;;;;20.84;33.16;99028.31;1774284;80;21438;-76
2021/10/25 11:06:10;;;;;;;14.00;8.90;;;;;;;21.72;33.39;99031.04;1787232;80;21421;-77
2021/10/25 11:08:40;;;;;;;10.18;7.90;;;;;;;22.17;28.57;99028.84;1735677;82;21047;-81
2021/10/25 11:11:14;;;;;;;11.78;8.13;;;;;;;22.20;29.71;99026.44;1751723;82;21029;-82
2021/10/25 11:13:54;;;;;;;10.18;7.70;;;;;;;22.87;30.70;99022.36;1718085;83;21053;-80
2021/10/25 11:18:56;;;;;;;10.28;6.75;;;;;;;23.45;26.95;99009.57;1705133;83;21065;-79
2021/10/25 11:21:46;;;;;;;10.13;6.25;;;;;;;23.51;25.70;98998.84;1714458;83;21076;-80
2021/10/25 11:24:17;;;;;;;10.05;6.30;;;;;;;23.00;24.13;98997.59;1749900;80;20995;-80
2021/10/25 11:26:49;;;;;;;11.10;6.70;;;;;;;23.10;24.84;98992.47;1754901;80;21041;-80
2021/10/25 11:29:31;;;;;;;10.72;6.97;;;;;;;23.97;26.04;98981.29;1749207;82;21326;-82
2021/10/25 11:32:08;;;;;;;10.53;7.03;;;;;;;23.97;26.04;98981.29;1753814;82;21018;-79
2021/10/25 11:34:42;;;;;;;9.45;6.03;;;;;;;23.89;22.65;98978.23;1736111;81;21025;-82
2021/10/25 11:37:17;;;;;;;9.50;6.00;;;;;;;23.70;24.41;98973.20;1781483;80;21021;-81
2021/10/25 11:39:58;;;;;;;10.63;6.53;;;;;;;24.02;22.31;98967.89;1726182;82;21008;-82
2021/10/25 11:42:27;;;;;;;12.33;7.00;;;;;;;23.16;26.14;98965.49;1750285;82;21460;-81
2021/10/25 11:44:57;;;;;;;13.85;7.05;;;;;;;22.74;26.02;98970.91;1737984;80;21011;-82
2021/10/25 11:47:31;;;;;;;8.90;5.90;;;;;;;22.20;26.44;98965.22;1763041;80;21045;-81
2021/10/25 11:50:07;;;;;;;12.10;6.40;;;;;;;21.38;25.51;98958.83;1742963;80;21069;-81
2021/10/25 11:52:39;;;;;;;7.67;5.60;;;;;;;21.05;25.80;98955.33;1781717;80;20943;-80
2021/10/25 11:55:09;;;;;;;8.68;6.08;;;;;;;21.50;26.25;98946.45;1753603;80;21047;-81
2021/10/25 11:57:36;;;;;;;12.37;6.58;;;;;;;21.52;26.67;98949.95;1751908;82;21075;-81
2021/10/25 12:00:10;;;;;;;8.35;6.45;;;;;;;21.40;25.93;98950.19;1768370;79;20995;-82
2021/10/25 12:02:39;;;;;;;10.82;5.95;;;;;;;21.05;26.39;98939.16;1766033;79;21415;-81
2021/10/25 12:05:10;;;;;;;10.88;6.30;;;;;;;21.02;27.63;98936.66;1764629;81;21018;-81
2021/10/25 12:07:48;;;;;;;9.88;6.15;;;;;;;21.42;26.29;98933.42;1765876;81;20990;-81
2021/10/25 12:10:17;;;;;;;10.65;6.40;;;;;;;21.71;26.90;98944.80;1749527;81;21443;-80
2021/10/25 12:12:44;;;;;;;13.80;5.55;;;;;;;22.01;25.90;98942.56;1741448;82;21010;-81
2021/10/25 12:15:16;;;;;;;16.35;6.17;;;;;;;21.83;26.17;98930.58;1747280;79;20982;-76
2021/10/25 12:17:43;;;;;;;11.97;5.90;;;;;;;21.60;25.44;98938.19;1775919;79;21009;-77
2021/10/25 12:20:15;;;;;;;9.45;5.53;;;;;;;21.50;26.17;98937.02;1793385;80;20984;-79
2021/10/25 12:22:43;;;;;;;12.33;5.60;;;;;;;20.95;25.94;98925.36;1767464;81;21138;-77
2021/10/25 12:25:13;;;;;;;10.03;6.17;;;;;;;19.82;26.78;98929.66;1760559;79;21024;-77
2021/10/25 12:27:41;;;;;;;9.25;6.53;;;;;;;19.13;27.92;98922.84;1807289;79;20996;-77
2021/10/25 12:30:17;;;;;;;9.13;5.28;;;;;;;19.21;28.40;98931.85;1784230;79;21479;-80
2021/10/25 12:32:58;;;;;;;13.65;5.03;;;;;;;19.22;28.70;98930.44;1771993;79;21444;-78
2021/10/25 12:35:44;;;;;;;7.47;5.33;;;;;;;18.90;27.74;98922.15;1760797;81;20996;-78
2021/10/25 12:38:23;;;;;;;13.53;6.12;;;;;;;17.37;28.54;98934.36;1736302;83;21505;-75
2021/10/25 12:41:03;;;;;;;17.95;5.80;;;;;;;16.54;30.14;98932.75;1748417;81;21068;-76
2021/10/25 12:43:47;;;;;;;10.82;5.72;;;;;;;16.13;31.33;98926.72;1767299;81;21086;-77
2021/10/25 12:46:21;;;;;;;10.43;6.00;;;;;;;15.83;31.79;98932.23;1776801;80;21072;-76
2021/10/25 12:48:56;;;;;;;9.98;5.67;;;;;;;15.43;32.16;98923.36;1793072;78;20996;-78
2021/10/25 12:51:44;;;;;;;10.72;4.97;;;;;;;15.10;32.37;98921.36;1797282;79;21006;-78
2021/10/25 12:54:17;;;;;;;10.58;5.60;;;;;;;14.82;32.73;98919.13;1796419;79;21537;-78
2021/10/25 12:56:46;;;;;;;;;;;;;;;14.60;33.10;98918.45;1799754;78;21009;-77
2021/10/25 12:59:17;;;;;;;13.58;7.05;;;;;;;14.41;33.55;98919.47;1771021;80;20117;-79
2021/10/25 13:01:59;;;;;;;9.83;5.50;;;;;;;14.26;33.83;98915.48;1767966;81;20980;-77
2021/10/25 13:04:27;;;;;;;8.43;5.40;;;;;;;14.07;34.27;98912.50;1767062;81;21064;-76
2021/10/25 13:06:56;;;;;;;11.43;6.10;;;;;;;14.01;34.60;98918.87;1766034;81;20964;-76
2021/10/25 13:09:23;;;;;;;11.88;6.15;;;;;;;13.96;34.83;98907.00;1765841;81;21099;-77
2021/10/25 13:11:50;;;;;;;12.65;6.47;;;;;;;14.20;34.91;98897.88;1766453;81;21014;-78